Latest Coastal Weather Observations for Devonport Airport

IDT60701

Issued at 7:05 am EDT Saturday 1 November 2014 (issued every 10 minutes, with the page automatically refreshed every 10 minutes)

About coastal observations | Map of coastal stations | Coastal observations for TAS | Marine services | Other Formats
Station Details ID: 091126 Name: DEVONPORT AIRPORT Lat: -41.17 Lon: 146.43 Height: 8.0 m
Data from the previous 72 hours. | See also: Recent months at Devonport Airport
Date/Time
EDT
Temp

°C
Wind Pressure Rain
since 9am
mm
Weather Cloud Vis
km
Sea
Height
m
Swell
Dir
 
Speed
knots
Gust
knots
hPa Trend Height
m
Period
s
Dir
01/07:00am 13.0 NW 19 24 994.4 - 3.2 - Partly cloudy 10 - - - -
01/06:30am 12.9 NW 17 24 993.8 - 3.2 - Partly cloudy 10 - - - -
01/06:07am 12.9 NW 20 26 993.8 - 3.2 - Partly cloudy 10 - - - -
01/06:00am 12.9 NW 19 26 993.8 - 3.2 Showers Cloudy 10 - - - -
01/05:54am 13.0 NW 17 23 993.9 - 3.2 - Partly cloudy 10 - - - -
01/05:30am 12.7 WNW 17 20 993.0 - 3.2 - Partly cloudy 8 - - - -
01/05:00am 13.1 NW 17 21 994.1 - 1.8 - Partly cloudy 10 - - - -
01/04:30am 13.5 NW 15 19 993.4 - 1.0 - Cloudy 10 - - - -
01/04:00am 14.0 NW 11 13 993.7 - 0.6 - Partly cloudy 10 - - - -
01/03:30am 14.0 NW 10 13 993.9 - 0.6 - Partly cloudy 10 - - - -
01/03:00am 13.6 WNW 6 8 993.7 - 0.6 Showers Cloudy 10 - - - -
01/02:30am 13.3 W 7 9 995.1 - 0.6 - Partly cloudy 10 - - - -
01/02:00am 13.1 WSW 5 8 994.8 - 0.6 - Partly cloudy 10 - - - -
01/01:30am 13.0 S 6 8 994.3 - 0.6 - - 10 - - - -
01/01:00am 12.8 S 7 9 994.2 - 0.6 - - 10 - - - -
01/12:30am 13.0 SSE 8 10 995.2 - 0.6 - Partly cloudy 10 - - - -
01/12:00am 13.3 SSW 8 10 996.3 - 0.6 - Cloudy 10 - - - -
 
Date/Time
EDT
Temp

°C
Wind Pressure Rain
since 9am
mm
Weather Cloud Vis
km
Sea
Height
m
Swell
Dir
 
Speed
knots
Gust
knots
hPa Trend Height
m
Period
s
Dir
31/11:30pm 13.2 SE 8 12 996.3 - 0.6 - - 10 - - - -
31/11:00pm 13.5 SSW 7 9 997.4 - 0.6 - Cloudy 10 - - - -
31/10:30pm 13.3 SSE 8 10 997.2 - 0.6 - Partly cloudy 10 - - - -
31/10:00pm 13.5 S 7 9 998.0 - 0.6 - Partly cloudy 10 - - - -
31/09:30pm 13.3 S 6 8 998.7 - 0.6 - Cloudy 10 - - - -
31/09:00pm 13.2 S 4 5 999.0 - 0.6 - Cloudy 10 - - - -
31/08:30pm 13.2 ESE 5 6 999.5 - 0.6 - Partly cloudy 10 - - - -
31/08:00pm 13.5 ENE 8 10 999.8 - 0.6 - - 10 - - - -
31/07:30pm 13.9 ENE 9 11 1000.2 - 0.6 - Partly cloudy 10 - - - -
31/07:00pm 14.1 NE 8 10 1000.6 - 0.6 - - 10 - - - -
31/06:30pm 14.1 NE 9 10 1000.8 - 0.6 - - 10 - - - -
31/06:02pm 14.6 NE 9 11 1001.5 - 0.6 - Partly cloudy 10 - - - -
31/06:00pm 14.7 NE 9 11 1001.5 - 0.6 - Mostly clear 10 - - - -
31/05:43pm 15.4 NE 9 12 1001.6 - 0.6 - Partly cloudy 10 - - - -
31/05:30pm 15.5 ENE 8 11 1001.5 - 0.6 - Cloudy 10 - - - -
31/05:12pm 14.7 ENE 9 11 1002.1 - 0.6 - Partly cloudy 10 - - - -
31/05:00pm 15.2 ENE 9 12 1002.2 - 0.6 - Partly cloudy 10 - - - -
31/04:30pm 14.8 E 6 8 1002.9 - 0.6 - Cloudy 10 - - - -
31/04:00pm 15.0 ENE 3 7 1004.2 - 0.6 - Cloudy 10 - - - -
31/03:32pm 14.5 N 5 7 1004.5 - 0.6 - Cloudy 10 - - - -
31/03:30pm 14.6 N 5 6 1004.5 - 0.6 - Cloudy 10 - - - -
31/03:00pm 14.5 N 6 8 1004.9 - 0.6 - Cloudy 10 - - - -
31/02:34pm 14.7 N 9 11 1005.1 - 0.6 - Partly cloudy 10 - - - -
31/02:30pm 15.5 N 10 11 1005.1 - 0.6 - Partly cloudy 10 - - - -
31/02:00pm 14.2 N 7 9 1005.6 - 0.6 - Partly cloudy 10 - - - -
31/01:30pm 13.9 N 5 8 1005.6 - 0.6 - Partly cloudy 10 - - - -
31/01:23pm 13.6 N 5 6 1005.7 - 0.6 - Partly cloudy 10 - - - -
31/01:05pm 14.0 NNW 4 6 1006.1 - 0.6 - Partly cloudy 10 - - - -
31/01:00pm 13.6 N 4 6 1006.3 - 0.6 - Partly cloudy 10 - - - -
31/12:35pm 12.7 NW 6 8 1006.9 - 0.6 - Partly cloudy 10 - - - -
31/12:30pm 12.6 NNW 6 7 1006.9 - 0.6 - Partly cloudy 9 - - - -
31/12:20pm 12.7 NW 6 7 1007.0 - 0.6 - Partly cloudy 6 - - - -
31/12:00pm 13.1 WNW 7 9 1007.3 - 0.6 Drizzle Mostly cloudy 10 - - - -
31/11:58am 13.2 WNW 7 9 1007.4 - 0.6 - Cloudy 10 - - - -
31/11:30am 13.4 NW 8 9 1007.4 - 0.6 - Cloudy 10 - - - -
31/11:00am 12.9 NW 11 13 1008.0 - 0.6 - Partly cloudy 10 - - - -
31/10:30am 12.7 WNW 7 9 1008.3 - 0.6 - Partly cloudy 10 - - - -
31/10:00am 12.5 NW 6 7 1008.3 - 0.4 - Partly cloudy 10 - - - -
31/09:30am 12.4 WNW 4 5 1008.3 - 0.2 - Partly cloudy 10 - - - -
31/09:00am 12.3 NW 2 4 1008.2 - 0.0 Showers Cloudy 10 - - - -
31/08:30am 12.4 WNW 6 7 1008.9 - 0.0 - Partly cloudy 10 - - - -
31/08:00am 12.3 WNW 7 8 1008.9 - 0.0 - Partly cloudy 10 - - - -
31/07:30am 12.2 WNW 7 9 1008.5 - 0.0 - Partly cloudy 10 - - - -
31/07:00am 12.2 WNW 10 12 1008.8 - 0.0 - Partly cloudy 10 - - - -
31/06:30am 12.1 WNW 11 15 1008.7 - 0.0 - Partly cloudy 10 - - - -
31/06:00am 11.4 W 9 11 1008.8 - 0.0 - Cloudy 10 - - - -
31/05:30am 11.4 W 11 16 1008.7 - 0.0 - Partly cloudy 10 - - - -
31/05:00am 11.6 WNW 12 14 1008.6 - 0.0 - Cloudy 10 - - - -
31/04:30am 11.6 WNW 10 12 1008.8 - 0.0 - Cloudy 10 - - - -
31/04:00am 11.8 WNW 10 11 1009.1 - 0.0 - Partly cloudy 10 - - - -
31/03:30am 11.6 WNW 11 13 1009.3 - 0.0 - Partly cloudy 10 - - - -
31/03:00am 11.8 WNW 13 16 1009.7 - 0.0 - Mostly cloudy 10 - - - -
31/02:30am 11.9 WNW 14 18 1009.7 - 0.0 - Partly cloudy 10 - - - -
31/02:00am 12.1 WNW 15 19 1010.0 - 0.0 - - 10 - - - -
31/01:30am 12.1 WNW 16 20 1010.4 - 0.0 - - 10 - - - -
31/01:00am 12.1 WNW 15 19 1010.7 - 0.0 - - 10 - - - -
31/12:30am 12.2 WNW 15 18 1010.8 - 0.0 - - 10 - - - -
31/12:00am 12.4 WNW 14 18 1010.9 - 0.0 - Mostly cloudy 10 - - - -
 
Date/Time
EDT
Temp

°C
Wind Pressure Rain
since 9am
mm
Weather Cloud Vis
km
Sea
Height
m
Swell
Dir
 
Speed
knots
Gust
knots
hPa Trend Height
m
Period
s
Dir
30/11:30pm 12.5 WNW 14 17 1010.8 - 0.0 - - 10 - - - -
30/11:00pm 12.5 WNW 13 17 1011.1 - 0.0 - - 10 - - - -
30/10:30pm 12.9 WNW 15 17 1011.5 - 0.0 - - 10 - - - -
30/10:00pm 13.1 WNW 15 18 1011.4 - 0.0 - - 10 - - - -
30/09:30pm 13.6 WNW 15 18 1011.2 - 0.0 - - 10 - - - -
30/09:00pm 13.8 WNW 13 16 1010.8 - 0.0 - Cloudy 10 - - - -
30/08:30pm 13.9 WNW 14 16 1010.7 - 0.0 - Partly cloudy 10 - - - -
30/08:00pm 14.1 WNW 14 17 1010.3 - 0.0 - - 10 - - - -
30/07:30pm 14.4 WNW 16 21 1010.0 - 0.0 - - 10 - - - -
30/07:00pm 14.8 WNW 17 21 1009.7 - 0.0 - - 10 - - - -
30/06:30pm 14.7 NW 17 21 1009.5 - 0.0 - Partly cloudy 10 - - - -
30/06:00pm 15.4 WNW 17 22 1009.6 - 0.0 - Mostly cloudy 10 - - - -
30/05:30pm 15.1 NW 19 24 1009.4 - 0.0 - Partly cloudy 10 - - - -
30/05:00pm 16.1 WNW 20 25 1009.0 - 0.0 - Partly cloudy 10 - - - -
30/04:30pm 14.8 NW 21 27 1009.1 - 0.0 - Partly cloudy 10 - - - -
30/04:00pm 15.3 NW 18 24 1008.9 - 0.0 - Partly cloudy 10 - - - -
30/03:30pm 15.2 NW 20 26 1008.9 - 0.0 - Partly cloudy 10 - - - -
30/03:00pm 16.6 NW 21 27 1008.9 - 0.0 - Cloudy 10 - - - -
30/02:30pm 16.4 NW 21 26 1008.9 - 0.0 - Partly cloudy 10 - - - -
30/02:00pm 15.7 NW 21 26 1009.2 - 0.0 - Partly cloudy 10 - - - -
30/01:30pm 15.8 NW 20 25 1009.3 - 0.0 - Partly cloudy 10 - - - -
30/01:00pm 15.7 NW 20 25 1009.3 - 0.0 - Cloudy 10 - - - -
30/12:30pm 15.3 NW 20 24 1009.6 - 0.0 - Partly cloudy 10 - - - -
30/12:00pm 15.5 NW 19 24 1009.7 - 0.0 - Mostly clear 10 - - - -
30/11:30am 15.4 NW 19 25 1010.0 - 0.0 - Partly cloudy 10 - - - -
30/11:00am 14.8 NW 18 23 1010.3 - 0.0 - Partly cloudy 10 - - - -
30/10:30am 13.9 NW 17 23 1010.5 - 0.0 - Partly cloudy 10 - - - -
30/10:00am 14.7 NW 19 23 1010.6 - 0.0 - Cloudy 10 - - - -
30/09:30am 14.1 NW 18 22 1010.8 - 0.0 - - 10 - - - -
30/09:00am 13.2 NW 17 21 1010.8 - 0.0 - - 10 - - - -
30/08:30am 12.9 WNW 16 21 1010.7 - 0.0 - - 10 - - - -
30/08:00am 12.6 WNW 14 17 1010.7 - 0.0 - Partly cloudy 10 - - - -
30/07:30am 12.0 WNW 12 15 1010.8 - 0.0 - - 10 - - - -
30/07:00am 11.5 WNW 13 17 1010.4 - 0.0 - - 10 - - - -
30/06:30am 11.5 WNW 16 20 1010.1 - 0.0 - - 10 - - - -
30/06:00am 11.4 WNW 16 21 1009.9 - 0.0 - - 10 - - - -
30/05:30am 11.4 WNW 16 20 1009.7 - 0.0 - - 10 - - - -
30/05:00am 11.5 WNW 17 19 1009.6 - 0.0 - - 10 - - - -
30/04:30am 11.3 WNW 16 19 1009.8 - 0.0 - - 10 - - - -
30/04:00am 11.4 WNW 16 19 1010.1 - 0.0 - - 10 - - - -
30/03:30am 11.6 WNW 17 21 1010.0 - 0.0 - - 10 - - - -
30/03:00am 11.8 WNW 15 19 1010.0 - 0.0 - - 10 - - - -
30/02:30am 11.8 WNW 17 22 1010.0 - 0.0 - - 10 - - - -
30/02:00am 12.0 WNW 18 23 1010.2 - 0.0 - Partly cloudy 10 - - - -
30/01:30am 12.4 WNW 18 22 1010.3 - 0.0 - Partly cloudy 10 - - - -
30/01:00am 12.3 WNW 16 18 1010.6 - 0.0 - - 10 - - - -
30/12:30am 12.4 WNW 15 20 1010.9 - 0.0 - Partly cloudy 10 - - - -
30/12:00am 12.3 WNW 13 16 1011.1 - 0.0 - - 10 - - - -
 
Date/Time
EDT
Temp

°C
Wind Pressure Rain
since 9am
mm
Weather Cloud Vis
km
Sea
Height
m
Swell
Dir
 
Speed
knots
Gust
knots
hPa Trend Height
m
Period
s
Dir
29/11:30pm 12.4 WNW 16 21 1011.2 - 0.0 - Partly cloudy 10 - - - -
29/11:00pm 13.0 WNW 16 18 1011.3 - 0.0 - Cloudy 10 - - - -
29/10:30pm 12.9 WNW 15 19 1011.4 - 0.0 - Partly cloudy 10 - - - -
29/10:00pm 12.9 WNW 18 23 1011.3 - 0.0 - Partly cloudy 10 - - - -
29/09:30pm 13.4 WNW 17 23 1011.5 - 0.0 - Partly cloudy 10 - - - -
29/09:00pm 13.3 WNW 19 24 1011.2 - 0.0 - Mostly cloudy 10 - - - -
29/08:30pm 13.1 WNW 19 24 1011.0 - 0.0 - Partly cloudy 10 - - - -
29/08:00pm 13.4 WNW 18 23 1011.1 - 0.0 - Partly cloudy 10 - - - -
29/07:30pm 13.5 WNW 19 23 1011.0 - 0.0 - Partly cloudy 10 - - - -
29/07:00pm 14.3 WNW 18 22 1010.8 - 0.0 - Partly cloudy 10 - - - -
29/06:30pm 14.7 WNW 22 27 1010.6 - 0.0 - Partly cloudy 10 - - - -
29/06:00pm 14.6 WNW 18 23 1010.7 - 0.0 - Mostly clear 10 - - - -
29/05:30pm 15.1 NW 21 27 1010.7 - 0.0 - Partly cloudy 10 - - - -
29/05:00pm 14.7 NW 24 29 1010.6 - 0.0 - Partly cloudy 10 - - - -
29/04:30pm 14.7 NW 24 29 1010.8 - 0.0 - Partly cloudy 10 - - - -
29/04:00pm 15.2 NW 25 31 1010.9 - 0.0 - Partly cloudy 10 - - - -
29/03:30pm 14.3 NW 24 32 1011.3 - 0.0 - Partly cloudy 10 - - - -
29/03:00pm 15.2 NW 23 30 1011.5 - 0.0 - Mostly clear 10 - - - -
29/02:30pm 15.4 NW 22 27 1011.9 - 0.0 - Partly cloudy 10 - - - -
29/02:00pm 14.5 NW 19 25 1012.2 - 0.0 - Partly cloudy 10 - - - -
29/01:30pm 15.2 NW 21 25 1012.6 - 0.0 - Partly cloudy 10 - - - -
29/01:00pm 14.1 NW 21 25 1012.6 - 0.0 - Partly cloudy 10 - - - -
29/12:30pm 15.2 NW 21 26 1012.8 - 0.0 - Partly cloudy 10 - - - -
29/12:00pm 14.4 NW 19 24 1013.1 - 0.0 - Cloudy 10 - - - -
29/11:30am 13.7 WNW 17 21 1013.5 - 0.0 - Partly cloudy 10 - - - -
29/11:00am 13.2 WNW 17 22 1013.7 - 0.0 - Partly cloudy 10 - - - -
29/10:30am 12.6 WNW 18 22 1014.0 - 0.0 - Partly cloudy 10 - - - -
29/10:00am 12.5 WNW 17 22 1014.0 - 0.0 - Partly cloudy 10 - - - -
29/09:30am 12.2 WNW 13 17 1014.2 - 0.0 - Cloudy 10 - - - -
29/09:00am 12.2 WNW 13 17 1014.3 - 0.4 - Cloudy 10 - - - -
29/08:30am 11.4 WNW 14 17 1014.3 - 0.4 - Cloudy 10 - - - -
29/08:00am 11.7 WNW 15 18 1014.1 - 0.4 - Partly cloudy 10 - - - -
29/07:30am 11.0 WNW 14 18 1013.8 - 0.4 - Partly cloudy 10 - - - -

Other Formats:

Comma delimited format used in spreadsheet applications
http://www.bom.gov.au/fwo/IDT60701/IDT60701.95960.axf

JavaScript Object Notation format (JSON) in row-major order
http://www.bom.gov.au/fwo/IDT60701/IDT60701.95960.json